KANB/ANB METAR and TAF weather

Enter ICAO airport designator
Station Type Date Time Source
KANB METAR 2018/12/13 14:53 UTC NOAA

KANB 131453Z AUTO 04008KT 10SM CLR 08/01 A3019 RMK AO2 SLP230 T00780011 53005


Station Type Date Time Source
KANB Decoded METAR 2018/12/13 14:53 UTC NOAA

ANNISTON METRO AIRPORT, AL, United States (KANB) 33-35N 085-51W 183M
Dec 13, 2018 - 09:53 AM EST / 2018.12.13 1453 UTC
Wind: from the NE (040 degrees) at 9 MPH (8 KT):0
Visibility: 10 mile(s):0
Sky conditions: clear
Temperature: 46.0 F (7.8 C)
Dew Point: 34.0 F (1.1 C)
Relative Humidity: 62%
Pressure (altimeter): 30.19 in. Hg (1022 hPa)
Pressure tendency: 0.01 inches (0.5 hPa) higher than three hours ago
ob: KANB 131453Z AUTO 04008KT 10SM CLR 08/01 A3019 RMK AO2 SLP230 T00780011 53005
cycle: 15

Station Type Date Time Source
KANB TAF 2018/12/13 12:42 UTC NOAA

TAF KANB 131139Z 1312/1412 05003KT P6SM OVC035
FM131400 07006KT P6SM SCT025 OVC170
FM140100 07010KT P6SM OVC040
FM140400 10012G20KT 5SM -RA BR OVC015


Example: see airport list